Time;durP1;ratioP1;P1;durP2;ratioP2;P2;SDS_P1;SDS_P2;PMS_P1;PMS_P2;Temp;Humidity;BMP_temperature;BMP_pressure;BME280_temperature;BME280_humidity;BME280_pressure;Samples;Min_cycle;Max_cycle;Signal;HPM_P1;HPM_P2
2022/08/19 00:00:08;;;;;;;10.68;4.70;;;20.60;99.90;;;;;;5031638;28;20104;-73
2022/08/19 00:02:34;;;;;;;8.15;5.32;;;20.60;99.90;;;;;;5049021;28;20048;-73
2022/08/19 00:04:59;;;;;;;8.70;4.85;;;20.60;99.90;;;;;;5041509;28;20033;-73
2022/08/19 00:07:25;;;;;;;11.07;5.10;;;20.50;99.90;;;;;;5031821;28;20052;-74
2022/08/19 00:09:51;;;;;;;10.17;4.80;;;20.50;99.90;;;;;;5043341;28;20083;-74
2022/08/19 00:12:16;;;;;;;10.60;5.10;;;20.50;99.90;;;;;;5050008;28;20143;-74
2022/08/19 00:14:42;;;;;;;7.97;4.53;;;20.50;99.90;;;;;;5043363;28;20424;-74
2022/08/19 00:17:08;;;;;;;8.50;5.03;;;20.40;99.90;;;;;;5031519;28;20059;-73
2022/08/19 00:19:35;;;;;;;7.88;5.30;;;20.40;99.90;;;;;;5031153;28;20029;-73
2022/08/19 00:22:02;;;;;;;9.48;4.97;;;20.40;99.90;;;;;;5043884;28;20129;-73
2022/08/19 00:24:28;;;;;;;8.55;5.28;;;20.40;99.90;;;;;;5042691;28;20472;-72
2022/08/19 00:26:56;;;;;;;7.95;4.82;;;20.40;99.90;;;;;;5031209;28;20041;-75
2022/08/19 00:29:23;;;;;;;9.98;4.65;;;20.30;99.90;;;;;;5031071;28;20075;-74
2022/08/19 00:31:49;;;;;;;7.90;4.85;;;20.30;99.90;;;;;;5031154;28;20469;-72
2022/08/19 00:34:15;;;;;;;9.65;4.93;;;20.30;99.90;;;;;;5030760;28;20465;-73
2022/08/19 00:36:42;;;;;;;7.57;4.90;;;20.20;99.90;;;;;;5031127;28;20035;-72
2022/08/19 00:39:09;;;;;;;8.27;5.25;;;20.30;99.90;;;;;;5029573;28;20029;-73
2022/08/19 00:41:35;;;;;;;9.75;5.45;;;20.30;99.90;;;;;;5029186;28;20069;-73
2022/08/19 00:44:16;;;;;;;9.83;5.27;;;20.20;99.90;;;;;;5031044;28;20055;-72
2022/08/19 00:46:44;;;;;;;7.57;6.05;;;20.20;99.90;;;;;;5030705;28;20042;-72
2022/08/19 00:49:20;;;;;;;10.18;5.32;;;20.20;99.90;;;;;;5032201;28;20108;-73
2022/08/19 00:51:49;;;;;;;7.68;5.65;;;20.10;99.90;;;;;;5030467;28;20033;-73
2022/08/19 00:54:16;;;;;;;10.23;6.00;;;20.10;99.90;;;;;;5030872;28;20036;-73
2022/08/19 00:56:42;;;;;;;8.80;5.35;;;20.10;99.90;;;;;;5047894;28;20057;-73
2022/08/19 00:59:09;;;;;;;9.45;5.53;;;20.10;99.90;;;;;;5049417;28;20033;-74
2022/08/19 01:01:41;;;;;;;;;;;20.10;99.90;;;;;;5048955;28;20049;-74
2022/08/19 01:04:08;;;;;;;10.55;6.00;;;20.10;99.90;;;;;;5049081;28;20375;-73
2022/08/19 01:06:37;;;;;;;8.52;5.10;;;20.10;99.90;;;;;;5047924;28;20421;-74
2022/08/19 01:09:04;;;;;;;8.35;5.50;;;20.00;99.90;;;;;;5032729;28;20477;-74
2022/08/19 01:11:32;;;;;;;9.27;5.80;;;20.00;99.90;;;;;;5030850;28;20061;-74
2022/08/19 01:13:59;;;;;;;8.80;5.75;;;20.00;99.90;;;;;;5030343;28;20040;-73
2022/08/19 01:16:28;;;;;;;8.48;6.07;;;20.00;99.90;;;;;;5040246;28;20029;-73
2022/08/19 01:18:53;;;;;;;11.63;6.10;;;20.00;99.90;;;;;;5050145;28;20476;-73
2022/08/19 01:21:34;;;;;;;6.87;5.00;;;20.00;99.90;;;;;;5050427;28;20036;-73
2022/08/19 01:23:59;;;;;;;7.57;5.03;;;20.00;99.90;;;;;;5049148;28;20493;-74
2022/08/19 01:26:27;;;;;;;9.60;5.30;;;20.00;99.90;;;;;;5030352;28;20065;-73
2022/08/19 01:28:56;;;;;;;8.55;5.18;;;20.00;99.90;;;;;;5030205;28;20499;-74
2022/08/19 01:31:25;;;;;;;9.15;5.78;;;20.00;99.90;;;;;;5030049;28;20034;-74
2022/08/19 01:33:52;;;;;;;7.93;5.47;;;20.00;99.90;;;;;;5030291;28;20152;-73
2022/08/19 01:36:28;;;;;;;8.32;5.35;;;20.00;99.90;;;;;;5034890;28;20037;-74
2022/08/19 01:38:54;;;;;;;10.23;5.60;;;19.90;99.90;;;;;;5049721;28;20465;-73
2022/08/19 01:41:20;;;;;;;9.23;5.95;;;19.90;99.90;;;;;;5047889;28;20172;-73
2022/08/19 01:43:45;;;;;;;7.27;6.00;;;19.90;99.90;;;;;;5049951;28;20108;-73
2022/08/19 01:46:11;;;;;;;9.27;6.20;;;19.80;99.90;;;;;;5036479;28;20089;-73
2022/08/19 01:48:40;;;;;;;8.83;5.87;;;19.80;99.90;;;;;;5030154;28;20038;-72
2022/08/19 01:51:06;;;;;;;10.45;5.53;;;19.80;99.90;;;;;;5028702;28;20061;-73
2022/08/19 01:53:32;;;;;;;;;;;19.80;99.90;;;;;;5029034;28;20033;-74
2022/08/19 01:55:58;;;;;;;10.75;5.22;;;19.70;99.90;;;;;;5028649;28;19947;-72
2022/08/19 01:58:30;;;;;;;10.23;6.07;;;19.80;99.90;;;;;;5028479;28;20025;-74
2022/08/19 02:00:56;;;;;;;9.63;5.80;;;19.70;99.90;;;;;;5029967;28;20108;-72
2022/08/19 02:03:22;;;;;;;11.20;6.00;;;19.70;99.90;;;;;;5029918;28;20105;-73
2022/08/19 02:05:53;;;;;;;8.48;5.88;;;19.70;99.90;;;;;;5044065;28;20029;-73
2022/08/19 02:08:18;;;;;;;7.20;5.05;;;19.70;99.90;;;;;;5047783;28;20484;-73
2022/08/19 02:10:44;;;;;;;7.90;6.17;;;19.70;99.90;;;;;;5051376;28;20029;-74
2022/08/19 02:13:11;;;;;;;10.38;5.90;;;19.70;99.90;;;;;;5053391;28;20108;-74
2022/08/19 02:15:38;;;;;;;10.30;6.47;;;19.60;99.90;;;;;;5052558;28;20503;-73
2022/08/19 02:18:03;;;;;;;9.57;6.03;;;19.60;99.90;;;;;;5052058;28;20036;-73
2022/08/19 02:20:29;;;;;;;14.53;7.10;;;19.60;99.90;;;;;;5053230;28;20033;-74
2022/08/19 02:22:54;;;;;;;10.03;6.90;;;19.50;99.90;;;;;;5053792;28;20112;-73
2022/08/19 02:25:20;;;;;;;11.07;6.43;;;19.50;99.90;;;;;;5034736;28;20493;-73
2022/08/19 02:27:46;;;;;;;9.82;6.47;;;19.40;99.90;;;;;;5033739;28;20057;-73
2022/08/19 02:30:15;;;;;;;8.60;6.30;;;19.40;99.90;;;;;;5033227;28;20044;-73
2022/08/19 02:32:42;;;;;;;10.23;6.72;;;19.40;99.90;;;;;;5033442;28;20116;-73
2022/08/19 02:35:08;;;;;;;8.57;6.20;;;19.30;99.90;;;;;;5045761;28;20033;-73
2022/08/19 02:40:18;;;;;;;12.35;6.47;;;19.20;99.90;;;;;;5048840;28;20102;-74
2022/08/19 02:42:45;;;;;;;12.83;7.03;;;19.30;99.90;;;;;;5052891;28;20036;-74
2022/08/19 02:45:12;;;;;;;10.68;6.90;;;19.20;99.90;;;;;;5051969;28;20021;-73
2022/08/19 02:47:37;;;;;;;;;;;19.20;99.90;;;;;;5053668;28;20067;-72
2022/08/19 02:50:04;;;;;;;12.60;6.93;;;19.20;99.90;;;;;;5053028;28;20355;-73
2022/08/19 02:52:31;;;;;;;;;;;19.20;99.90;;;;;;5053567;28;20044;-72
2022/08/19 02:54:57;;;;;;;12.75;7.00;;;19.10;99.90;;;;;;5033245;28;19944;-73
2022/08/19 02:57:23;;;;;;;8.45;6.55;;;19.20;99.90;;;;;;5033203;28;20358;-72
2022/08/19 02:59:50;;;;;;;12.02;6.75;;;19.00;99.90;;;;;;5032810;28;20040;-73
2022/08/19 03:02:16;;;;;;;9.60;6.78;;;19.00;99.90;;;;;;5031510;28;20079;-73
2022/08/19 03:04:42;;;;;;;8.75;6.25;;;19.00;99.90;;;;;;5045957;28;20060;-73
2022/08/19 03:07:08;;;;;;;9.75;6.45;;;19.00;99.90;;;;;;5051439;28;20033;-73
2022/08/19 03:09:37;;;;;;;13.45;7.40;;;19.10;99.90;;;;;;5038249;28;20094;-73
2022/08/19 03:12:04;;;;;;;10.50;6.72;;;19.00;99.90;;;;;;5031388;28;20026;-72
2022/08/19 03:14:33;;;;;;;9.30;5.93;;;19.00;99.90;;;;;;5031340;28;20307;-73
2022/08/19 03:16:59;;;;;;;11.00;6.13;;;19.00;99.90;;;;;;5031117;28;20060;-73
2022/08/19 03:19:25;;;;;;;9.23;5.80;;;19.00;99.90;;;;;;5032136;28;20030;-73
2022/08/19 03:21:52;;;;;;;10.45;6.60;;;19.00;99.90;;;;;;5032392;28;20048;-73
2022/08/19 03:24:18;;;;;;;10.05;6.72;;;19.00;99.90;;;;;;5050051;28;20471;-74
2022/08/19 03:26:46;;;;;;;;;;;19.00;99.90;;;;;;5052599;28;20052;-73
2022/08/19 03:29:12;;;;;;;8.52;6.35;;;19.00;99.90;;;;;;5051032;28;19962;-72
2022/08/19 03:31:40;;;;;;;11.55;6.68;;;19.10;99.90;;;;;;5050840;28;20041;-73
2022/08/19 03:34:06;;;;;;;9.00;6.15;;;19.10;99.90;;;;;;5051521;28;20032;-72
2022/08/19 03:36:32;;;;;;;11.57;6.15;;;19.10;99.90;;;;;;5052499;28;20033;-73
2022/08/19 03:39:00;;;;;;;7.75;6.43;;;19.20;99.90;;;;;;5038431;28;20029;-73
2022/08/19 03:41:31;;;;;;;10.25;6.75;;;19.30;99.90;;;;;;5031924;28;20804;-74
2022/08/19 03:43:57;;;;;;;13.30;6.43;;;19.20;99.90;;;;;;5039708;28;20427;-73
2022/08/19 03:46:28;;;;;;;10.63;6.00;;;19.20;99.90;;;;;;5051846;28;20047;-73
2022/08/19 03:48:56;;;;;;;10.55;6.75;;;19.20;99.90;;;;;;5050547;28;20808;-74
2022/08/19 03:51:28;;;;;;;10.73;6.22;;;19.20;99.90;;;;;;5051696;28;20039;-72
2022/08/19 03:53:55;;;;;;;9.90;6.00;;;19.20;99.90;;;;;;5032638;28;20038;-73
2022/08/19 03:56:21;;;;;;;9.88;6.35;;;19.30;99.90;;;;;;5031805;28;20496;-73
2022/08/19 03:58:47;;;;;;;9.20;6.30;;;19.20;99.90;;;;;;5031670;28;20028;-74
2022/08/19 04:01:23;;;;;;;8.07;6.17;;;19.20;99.90;;;;;;5031636;28;20041;-73
2022/08/19 04:03:49;;;;;;;7.68;5.80;;;19.30;99.90;;;;;;5044228;28;20060;-74
2022/08/19 04:06:21;;;;;;;8.73;5.90;;;19.30;99.90;;;;;;5051524;28;20122;-73
2022/08/19 04:08:50;;;;;;;8.80;5.72;;;19.30;99.90;;;;;;5049569;28;20044;-73
2022/08/19 04:11:17;;;;;;;7.78;5.40;;;19.30;99.90;;;;;;5050074;28;20041;-74
2022/08/19 04:13:44;;;;;;;7.78;6.03;;;19.30;99.90;;;;;;5039681;28;20036;-74
2022/08/19 04:16:10;;;;;;;9.63;5.55;;;19.30;99.90;;;;;;5029884;28;20477;-73
2022/08/19 04:18:38;;;;;;;8.65;5.85;;;19.30;99.90;;;;;;5031391;28;20381;-72
2022/08/19 04:21:05;;;;;;;10.18;6.30;;;19.30;99.90;;;;;;5031127;28;20358;-73
2022/08/19 04:23:31;;;;;;;8.57;5.85;;;19.30;99.90;;;;;;5050479;28;20424;-73
2022/08/19 04:25:57;;;;;;;11.60;6.13;;;19.30;99.90;;;;;;5051087;28;20094;-74
2022/08/19 04:28:24;;;;;;;10.23;5.97;;;19.30;99.90;;;;;;5049651;28;20069;-73
2022/08/19 04:30:52;;;;;;;10.65;6.25;;;19.40;99.90;;;;;;5050784;28;20480;-73
2022/08/19 04:33:22;;;;;;;9.85;5.88;;;19.30;99.90;;;;;;5035464;28;20046;-73
2022/08/19 04:35:50;;;;;;;12.25;5.97;;;19.30;99.90;;;;;;5029720;28;20018;-72
2022/08/19 04:38:16;;;;;;;7.82;5.70;;;19.40;99.90;;;;;;5045072;28;20029;-73
2022/08/19 04:43:50;;;;;;;10.32;6.00;;;19.40;99.90;;;;;;5050551;28;20484;-74
2022/08/19 04:46:16;;;;;;;8.07;5.63;;;19.50;99.90;;;;;;5029545;28;20437;-74
2022/08/19 04:48:43;;;;;;;;;;;19.60;99.90;;;;;;5030038;28;20472;-73
2022/08/19 04:51:12;;;;;;;8.18;5.85;;;19.50;99.90;;;;;;5034991;28;19912;-72
2022/08/19 04:53:40;;;;;;;10.02;5.82;;;19.50;99.90;;;;;;5050647;28;20025;-72
2022/08/19 04:56:09;;;;;;;12.27;6.22;;;19.50;99.90;;;;;;5050589;28;20033;-73
2022/08/19 04:58:36;;;;;;;9.43;6.10;;;19.60;99.90;;;;;;5050935;28;20035;-73
2022/08/19 05:01:03;;;;;;;8.00;5.88;;;19.60;99.90;;;;;;5049115;28;20044;-68
2022/08/19 05:03:32;;;;;;;8.30;5.53;;;19.60;99.90;;;;;;5030267;28;20036;-68
2022/08/19 05:05:58;;;;;;;11.10;5.30;;;19.70;99.90;;;;;;5031510;28;20496;-68
2022/08/19 05:08:23;;;;;;;8.43;5.50;;;19.70;99.90;;;;;;5050047;28;20025;-68
2022/08/19 05:10:51;;;;;;;10.67;5.13;;;19.80;99.90;;;;;;5050224;28;20025;-68
2022/08/19 05:13:18;;;;;;;11.30;5.72;;;19.80;99.90;;;;;;5034314;28;20080;-67
2022/08/19 05:15:52;;;;;;;8.43;5.53;;;19.80;99.90;;;;;;5030455;28;20048;-67
2022/08/19 05:23:54;;;;;;;11.45;5.57;;;20.00;99.90;;;;;;5050371;28;20028;-69
2022/08/19 05:26:19;;;;;;;7.33;5.07;;;20.00;99.90;;;;;;5048606;28;20388;-67
2022/08/19 05:28:45;;;;;;;8.57;5.27;;;20.10;99.90;;;;;;5048702;28;20495;-67
2022/08/19 05:31:11;;;;;;;8.93;5.80;;;20.10;99.90;;;;;;5044174;28;20060;-67
2022/08/19 05:33:37;;;;;;;10.50;5.03;;;20.20;99.90;;;;;;5031692;28;20025;-67
2022/08/19 05:36:04;;;;;;;8.70;5.35;;;20.20;99.90;;;;;;5035147;28;20036;-67
2022/08/19 05:38:29;;;;;;;13.75;5.18;;;20.20;99.90;;;;;;5048641;28;20031;-68
2022/08/19 05:40:55;;;;;;;11.63;5.43;;;20.20;99.90;;;;;;5048820;28;20594;-68
2022/08/19 05:43:21;;;;;;;7.80;5.13;;;20.20;99.90;;;;;;5031261;28;20120;-67
2022/08/19 05:45:46;;;;;;;12.47;5.10;;;20.30;99.90;;;;;;5033812;28;20258;-67
2022/08/19 05:48:12;;;;;;;8.53;5.10;;;20.30;99.90;;;;;;5034012;28;20033;-68
2022/08/19 05:50:40;;;;;;;9.68;6.75;;;20.40;99.90;;;;;;5041217;28;20533;-68
2022/08/19 05:53:05;;;;;;;10.23;4.93;;;20.40;99.90;;;;;;5053658;28;20056;-67
2022/08/19 05:55:32;;;;;;;10.10;5.17;;;20.50;99.90;;;;;;5052137;28;20025;-68
2022/08/19 05:57:58;;;;;;;9.93;5.45;;;20.60;99.90;;;;;;5054092;28;20412;-67
2022/08/19 06:00:24;;;;;;;9.13;5.40;;;20.60;99.90;;;;;;5051418;28;20090;-67
2022/08/19 06:02:50;;;;;;;12.10;5.57;;;20.60;99.90;;;;;;5050340;28;20124;-67
2022/08/19 06:05:16;;;;;;;8.50;5.10;;;20.50;99.90;;;;;;5050521;28;20039;-67
2022/08/19 06:07:42;;;;;;;11.13;6.00;;;20.60;99.90;;;;;;5032435;28;20139;-67
2022/08/19 06:10:10;;;;;;;9.33;5.47;;;20.60;99.90;;;;;;5033092;28;20055;-67
2022/08/19 06:12:37;;;;;;;10.20;5.95;;;20.70;99.90;;;;;;5035288;28;20558;-68
2022/08/19 06:15:06;;;;;;;9.63;5.10;;;20.80;99.90;;;;;;5034343;28;20026;-67
2022/08/19 06:17:34;;;;;;;10.68;5.32;;;20.80;99.90;;;;;;5033492;28;20033;-67
2022/08/19 06:20:00;;;;;;;12.75;5.80;;;20.80;99.90;;;;;;5035991;28;20385;-67
2022/08/19 06:22:26;;;;;;;8.33;5.87;;;20.90;99.90;;;;;;5052769;28;20047;-67
2022/08/19 06:24:53;;;;;;;10.77;6.20;;;21.00;99.90;;;;;;5053049;28;20052;-68
2022/08/19 06:27:19;;;;;;;7.15;5.07;;;21.00;99.90;;;;;;5051815;28;20041;-67
2022/08/19 06:29:46;;;;;;;10.85;5.22;;;21.00;99.90;;;;;;5052820;28;20083;-68
2022/08/19 06:32:14;;;;;;;9.27;4.93;;;21.10;99.90;;;;;;5033252;28;20033;-67
2022/08/19 06:34:40;;;;;;;9.88;5.38;;;21.10;99.90;;;;;;5032922;28;20057;-68
2022/08/19 06:37:07;;;;;;;9.90;5.53;;;21.20;99.90;;;;;;5052710;28;20036;-67
2022/08/19 06:39:38;;;;;;;11.82;5.35;;;21.30;99.90;;;;;;5052423;28;20036;-68
2022/08/19 06:42:06;;;;;;;11.10;4.75;;;21.30;99.90;;;;;;5050771;28;20033;-67
2022/08/19 06:44:35;;;;;;;9.38;5.40;;;21.40;99.90;;;;;;5051203;28;20036;-68
2022/08/19 06:47:06;;;;;;;8.77;5.43;;;21.50;99.90;;;;;;5052708;28;20530;-68
2022/08/19 06:49:32;;;;;;;8.55;5.68;;;21.60;99.90;;;;;;5047807;28;20032;-68
2022/08/19 06:51:58;;;;;;;9.00;5.78;;;21.60;99.90;;;;;;5032761;28;20037;-68
2022/08/19 06:54:25;;;;;;;9.38;5.15;;;21.70;99.90;;;;;;5031464;28;20042;-68
2022/08/19 06:56:52;;;;;;;9.75;5.15;;;21.70;99.90;;;;;;5032664;28;20037;-67
2022/08/19 06:59:22;;;;;;;10.13;5.80;;;21.70;99.90;;;;;;5032505;28;20083;-67
2022/08/19 07:01:50;;;;;;;8.52;4.90;;;21.80;99.90;;;;;;5051872;28;20041;-68
2022/08/19 07:04:18;;;;;;;9.05;5.13;;;21.80;99.90;;;;;;5051896;28;20224;-67
2022/08/19 07:06:47;;;;;;;10.10;4.95;;;21.90;99.90;;;;;;5032265;28;20029;-67
2022/08/19 07:09:15;;;;;;;10.02;5.07;;;22.00;99.90;;;;;;5032127;28;20126;-67
2022/08/19 07:11:45;;;;;;;8.63;5.25;;;22.10;99.90;;;;;;5032851;28;20477;-68
2022/08/19 07:14:11;;;;;;;8.75;4.88;;;22.20;99.90;;;;;;5031636;28;20029;-67
2022/08/19 07:16:37;;;;;;;10.43;5.20;;;22.30;99.90;;;;;;5031987;28;20029;-67
2022/08/19 07:19:03;;;;;;;8.53;5.67;;;22.30;99.90;;;;;;5035977;28;20037;-67
2022/08/19 07:21:29;;;;;;;6.53;4.77;;;22.40;99.90;;;;;;5051587;28;20060;-67
2022/08/19 07:23:56;;;;;;;7.78;5.38;;;22.40;99.90;;;;;;5051687;28;20442;-67
2022/08/19 07:26:29;;;;;;;16.88;5.85;;;22.40;99.90;;;;;;5051885;28;20481;-67
2022/08/19 07:28:57;;;;;;;10.95;5.30;;;22.50;99.90;;;;;;5050988;28;20036;-67
2022/08/19 07:31:25;;;;;;;17.35;5.85;;;22.60;99.90;;;;;;5031314;28;20076;-67
2022/08/19 07:33:52;;;;;;;9.48;5.10;;;22.60;99.90;;;;;;5031731;28;20052;-67
2022/08/19 07:36:20;;;;;;;10.38;4.97;;;22.70;99.90;;;;;;5051368;28;20080;-67
2022/08/19 07:38:49;;;;;;;10.30;5.20;;;22.70;99.90;;;;;;5051116;28;20480;-67
2022/08/19 07:41:21;;;;;;;12.55;5.35;;;22.80;99.90;;;;;;5050800;28;20048;-68
2022/08/19 07:43:47;;;;;;;8.82;5.15;;;22.90;99.90;;;;;;5033873;28;20061;-68
2022/08/19 07:46:13;;;;;;;7.68;5.00;;;23.10;99.90;;;;;;5047627;28;20068;-68
2022/08/19 07:48:41;;;;;;;13.85;5.95;;;23.10;99.90;;;;;;5039014;28;20031;-68
2022/08/19 07:51:09;;;;;;;11.13;5.90;;;23.20;99.90;;;;;;5030262;28;20446;-68
2022/08/19 07:53:36;;;;;;;11.15;5.25;;;23.40;99.90;;;;;;5031167;28;20017;-67
2022/08/19 07:56:04;;;;;;;9.52;5.43;;;23.50;99.90;;;;;;5040798;28;20106;-68
2022/08/19 07:58:39;;;;;;;10.40;5.40;;;23.60;99.90;;;;;;5050650;28;20021;-68
2022/08/19 08:01:07;;;;;;;9.18;5.38;;;23.70;99.90;;;;;;5057168;28;20508;-68
2022/08/19 08:09:20;;;;;;;13.25;5.75;;;24.00;99.90;;;;;;5030648;28;20044;-69
2022/08/19 08:11:56;;;;;;;8.75;5.22;;;24.00;99.90;;;;;;5049022;28;20037;-69
2022/08/19 08:14:40;;;;;;;9.37;5.17;;;24.20;99.90;;;;;;5048696;28;20089;-69
2022/08/19 08:17:07;;;;;;;8.10;5.43;;;24.30;99.90;;;;;;5039103;28;20036;-69
2022/08/19 08:19:33;;;;;;;11.82;5.43;;;24.40;99.90;;;;;;5049735;28;20029;-69
2022/08/19 08:22:00;;;;;;;8.43;5.43;;;24.60;99.90;;;;;;5030221;28;20029;-69
2022/08/19 08:24:28;;;;;;;11.23;5.20;;;24.70;99.90;;;;;;5030150;28;20545;-69
2022/08/19 08:26:54;;;;;;;11.85;5.78;;;24.90;99.90;;;;;;5030479;28;20477;-69
2022/08/19 08:29:19;;;;;;;8.60;5.30;;;25.00;99.90;;;;;;5030077;28;20037;-68
2022/08/19 08:31:46;;;;;;;10.80;7.33;;;25.10;99.90;;;;;;5046582;28;20044;-70
2022/08/19 08:34:13;;;;;;;9.73;6.13;;;25.20;99.90;;;;;;5048069;28;20099;-69
2022/08/19 08:36:42;;;;;;;12.95;5.65;;;25.20;99.90;;;;;;5050095;28;20036;-69
2022/08/19 08:39:09;;;;;;;11.65;5.70;;;25.30;99.90;;;;;;5049864;28;20021;-69
2022/08/19 08:41:40;;;;;;;;;;;25.50;99.90;;;;;;5048572;28;20126;-69
2022/08/19 08:44:18;;;;;;;9.43;4.97;;;25.60;99.90;;;;;;5032695;28;20425;-69
2022/08/19 08:46:51;;;;;;;8.45;4.80;;;25.70;99.90;;;;;;5037704;28;20023;-70
2022/08/19 08:49:41;;;;;;;9.13;5.32;;;25.80;99.90;;;;;;5031848;28;20112;-70
2022/08/19 08:52:13;;;;;;;9.73;5.30;;;25.90;99.90;;;;;;5030303;28;20032;-70
2022/08/19 08:54:42;;;;;;;14.68;5.45;;;26.20;99.90;;;;;;5029738;28;20033;-70
2022/08/19 08:57:21;;;;;;;11.43;5.80;;;26.40;99.90;;;;;;5041320;28;20091;-69
2022/08/19 08:59:50;;;;;;;11.88;5.30;;;26.60;99.90;;;;;;5048326;28;20100;-69
2022/08/19 09:02:16;;;;;;;7.85;4.72;;;26.70;99.90;;;;;;5044744;28;20059;-70
2022/08/19 09:04:42;;;;;;;9.38;5.40;;;26.80;99.90;;;;;;5046509;28;20867;-69
2022/08/19 09:07:26;;;;;;;12.23;5.50;;;27.00;99.90;;;;;;5030007;28;20068;-70
2022/08/19 09:09:57;;;;;;;12.23;5.50;;;27.00;99.90;;;;;;5030401;28;20362;-70
2022/08/19 09:12:44;;;;;;;9.38;5.40;;;27.10;99.90;;;;;;5047645;28;20633;-70
2022/08/19 09:15:13;;;;;;;10.95;5.38;;;27.10;99.90;;;;;;5029316;28;20034;-69
2022/08/19 09:17:38;;;;;;;14.05;6.05;;;27.00;99.90;;;;;;5031089;28;20049;-69
2022/08/19 09:20:14;;;;;;;10.97;5.23;;;27.00;99.90;;;;;;5031627;28;20333;-69
2022/08/19 09:22:45;;;;;;;9.48;5.30;;;26.90;99.90;;;;;;5047450;28;20021;-68
2022/08/19 09:25:16;;;;;;;16.63;5.03;;;26.90;99.90;;;;;;5049755;28;20021;-68
2022/08/19 09:27:42;;;;;;;10.15;5.38;;;27.00;99.90;;;;;;5047855;28;20033;-68
2022/08/19 09:30:14;;;;;;;10.40;5.85;;;26.90;99.90;;;;;;5033105;28;20164;-69
2022/08/19 09:32:42;;;;;;;7.55;4.90;;;26.80;99.90;;;;;;5029787;28;20029;-68
2022/08/19 09:35:08;;;;;;;12.73;5.40;;;26.90;99.90;;;;;;5033657;28;20029;-68
2022/08/19 09:37:33;;;;;;;8.98;4.97;;;26.90;99.90;;;;;;5029321;28;20029;-69
2022/08/19 09:39:59;;;;;;;11.70;5.70;;;27.00;99.90;;;;;;5030998;28;20041;-69
2022/08/19 09:42:24;;;;;;;12.37;5.93;;;27.20;99.90;;;;;;5045650;28;20034;-69
2022/08/19 09:44:50;;;;;;;9.03;5.67;;;27.30;99.90;;;;;;5029241;28;20119;-69
2022/08/19 09:47:15;;;;;;;9.60;5.17;;;27.20;99.90;;;;;;5029477;28;20045;-70
2022/08/19 09:49:41;;;;;;;8.60;5.13;;;27.00;99.90;;;;;;5027328;28;20555;-69
2022/08/19 09:52:11;;;;;;;9.88;5.15;;;26.80;99.90;;;;;;5038838;28;20065;-69
2022/08/19 09:54:38;;;;;;;7.95;5.25;;;26.50;99.90;;;;;;5047072;28;20496;-69
2022/08/19 09:57:04;;;;;;;9.25;5.88;;;26.30;99.90;;;;;;5038669;28;20087;-69
2022/08/19 09:59:30;;;;;;;10.52;5.50;;;26.20;99.90;;;;;;5029311;28;20470;-69
2022/08/19 10:01:55;;;;;;;15.45;6.57;;;26.30;99.90;;;;;;5029197;28;20034;-69
2022/08/19 10:04:22;;;;;;;7.17;5.07;;;26.40;99.90;;;;;;5037539;28;20028;-69
2022/08/19 10:06:48;;;;;;;;;;;26.60;99.90;;;;;;5048665;28;20032;-69
2022/08/19 10:09:16;;;;;;;11.40;5.53;;;26.80;99.90;;;;;;5052710;28;19909;-69
2022/08/19 10:11:45;;;;;;;7.95;5.53;;;26.90;99.90;;;;;;5053589;28;20086;-69
2022/08/19 10:14:11;;;;;;;12.20;5.30;;;26.70;99.90;;;;;;5058481;28;20532;-69
2022/08/19 10:16:37;;;;;;;8.47;5.57;;;26.60;99.90;;;;;;5045753;28;20024;-69
2022/08/19 10:19:03;;;;;;;9.65;5.70;;;26.40;99.90;;;;;;5053860;28;20028;-69
2022/08/19 10:21:31;;;;;;;9.18;6.00;;;26.30;99.90;;;;;;5039921;28;20029;-69
2022/08/19 10:23:59;;;;;;;9.52;5.47;;;26.20;99.90;;;;;;5052792;28;20098;-69
2022/08/19 10:26:28;;;;;;;9.20;5.53;;;25.90;99.90;;;;;;5046760;28;20037;-69
2022/08/19 10:28:54;;;;;;;6.90;4.90;;;25.70;99.90;;;;;;5048925;28;20033;-69
2022/08/19 10:31:23;;;;;;;15.15;7.03;;;25.50;99.90;;;;;;5048178;28;20032;-69
2022/08/19 10:33:49;;;;;;;12.50;6.53;;;25.30;99.90;;;;;;5032209;28;20044;-68
2022/08/19 10:36:19;;;;;;;12.18;6.00;;;25.10;99.90;;;;;;5036915;28;20079;-66
2022/08/19 10:38:47;;;;;;;17.05;6.22;;;25.00;99.90;;;;;;5051097;28;20568;-67
2022/08/19 10:41:16;;;;;;;10.13;5.95;;;25.10;99.90;;;;;;5051466;28;20536;-67
2022/08/19 10:43:44;;;;;;;9.02;5.72;;;25.30;99.90;;;;;;5050998;28;20524;-67
2022/08/19 10:46:14;;;;;;;11.88;5.72;;;25.70;99.90;;;;;;5050616;28;20043;-68
2022/08/19 10:48:40;;;;;;;9.07;5.90;;;26.20;99.90;;;;;;5052086;28;20039;-67
2022/08/19 10:53:51;;;;;;;8.13;5.22;;;26.40;99.90;;;;;;5032322;28;20507;-68
2022/08/19 10:59:03;;;;;;;10.00;5.22;;;26.20;99.90;;;;;;5031527;28;20516;-66
2022/08/19 11:01:30;;;;;;;8.85;5.30;;;26.10;99.90;;;;;;5049266;28;20022;-66
2022/08/19 11:03:57;;;;;;;7.15;5.15;;;25.90;99.90;;;;;;5052072;28;20045;-67
2022/08/19 11:06:25;;;;;;;7.95;5.53;;;25.80;99.90;;;;;;5047488;28;20030;-67
2022/08/19 11:08:55;;;;;;;9.15;4.95;;;25.80;99.90;;;;;;5032174;28;20546;-67
2022/08/19 11:11:21;;;;;;;7.65;4.63;;;25.90;99.90;;;;;;5032155;28;20057;-67
2022/08/19 11:13:47;;;;;;;;;;;26.10;99.90;;;;;;5032393;28;20484;-67
2022/08/19 11:16:16;;;;;;;9.73;4.85;;;26.10;99.90;;;;;;5045169;28;19916;-67
2022/08/19 11:18:45;;;;;;;8.95;5.18;;;25.90;99.90;;;;;;5052119;28;20025;-67
2022/08/19 11:21:16;;;;;;;7.97;5.03;;;25.70;99.90;;;;;;5048754;28;20043;-67
2022/08/19 11:23:43;;;;;;;8.80;4.97;;;25.50;99.90;;;;;;5040271;28;20033;-67
2022/08/19 11:26:09;;;;;;;10.75;5.32;;;25.40;99.90;;;;;;5050534;28;20052;-67
2022/08/19 11:28:35;;;;;;;12.88;5.32;;;25.30;99.90;;;;;;5051742;28;20064;-66
2022/08/19 11:31:03;;;;;;;11.02;4.80;;;25.30;99.90;;;;;;5040813;28;20116;-67
2022/08/19 11:33:30;;;;;;;8.35;4.70;;;25.20;99.90;;;;;;5030848;28;20041;-67
2022/08/19 11:35:59;;;;;;;8.32;4.60;;;25.20;99.90;;;;;;5031379;28;20061;-67
2022/08/19 11:38:25;;;;;;;9.82;5.30;;;25.30;99.90;;;;;;5040228;28;20121;-68
2022/08/19 11:40:55;;;;;;;8.05;4.95;;;25.60;99.90;;;;;;5048460;28;20076;-67
2022/08/19 11:43:21;;;;;;;7.35;4.28;;;26.40;99.90;;;;;;5036921;28;20132;-68
2022/08/19 11:45:48;;;;;;;13.20;5.88;;;26.60;99.90;;;;;;5054389;28;20436;-67
2022/08/19 11:48:13;;;;;;;8.68;5.00;;;26.50;99.90;;;;;;5038019;28;20057;-68
2022/08/19 11:50:41;;;;;;;10.97;4.97;;;26.20;99.90;;;;;;5030900;28;20057;-68
2022/08/19 11:53:06;;;;;;;7.05;4.60;;;25.90;99.90;;;;;;5039393;28;20037;-68
2022/08/19 11:55:32;;;;;;;8.33;5.17;;;25.60;99.90;;;;;;5034348;28;20051;-68
2022/08/19 11:57:57;;;;;;;8.83;4.93;;;25.40;99.90;;;;;;5031248;28;20037;-68
2022/08/19 12:00:23;;;;;;;9.23;5.23;;;25.20;99.90;;;;;;5039133;28;20033;-69
2022/08/19 12:02:48;;;;;;;10.37;4.97;;;25.20;99.90;;;;;;5053054;28;20083;-69
2022/08/19 12:05:14;;;;;;;11.23;4.97;;;25.20;99.90;;;;;;5052462;28;20048;-68
2022/08/19 12:07:42;;;;;;;8.77;5.03;;;25.20;99.90;;;;;;5034692;28;20036;-68
2022/08/19 12:10:08;;;;;;;8.70;4.50;;;25.20;99.90;;;;;;5031308;28;20156;-68
2022/08/19 12:12:34;;;;;;;7.53;5.20;;;25.30;99.90;;;;;;5032865;28;20037;-69
2022/08/19 12:14:59;;;;;;;7.13;4.40;;;25.30;99.90;;;;;;5032991;28;20166;-69
2022/08/19 12:17:26;;;;;;;8.23;4.93;;;25.30;99.90;;;;;;5029152;28;20103;-68
2022/08/19 12:19:52;;;;;;;7.70;4.72;;;25.30;99.90;;;;;;5041498;28;20100;-68
2022/08/19 12:22:20;;;;;;;11.02;4.72;;;25.30;99.90;;;;;;5044265;28;20459;-68
2022/08/19 12:24:46;;;;;;;6.60;4.97;;;25.20;99.90;;;;;;5044712;28;20037;-68
2022/08/19 12:27:11;;;;;;;7.83;4.70;;;25.00;99.90;;;;;;5052643;28;20031;-69
2022/08/19 12:29:37;;;;;;;8.23;4.77;;;24.90;99.90;;;;;;5042471;28;20037;-69
2022/08/19 12:32:03;;;;;;;8.27;5.30;;;24.70;99.90;;;;;;5046071;28;20091;-69
2022/08/19 12:34:31;;;;;;;6.70;4.57;;;24.60;99.90;;;;;;5034438;28;20029;-69
2022/08/19 12:37:03;;;;;;;7.30;5.13;;;24.60;99.90;;;;;;5035038;28;20036;-69
2022/08/19 12:39:30;;;;;;;9.02;4.38;;;24.60;99.90;;;;;;5031744;28;20496;-69
2022/08/19 12:41:55;;;;;;;9.80;4.45;;;24.40;99.90;;;;;;5044160;28;20037;-68
2022/08/19 12:44:22;;;;;;;8.20;4.80;;;24.30;99.90;;;;;;5049900;28;20086;-69
2022/08/19 12:46:49;;;;;;;8.13;4.75;;;24.30;99.90;;;;;;5035643;28;20024;-69
2022/08/19 12:49:15;;;;;;;6.88;4.55;;;24.20;99.90;;;;;;5048414;28;20037;-68
2022/08/19 12:51:42;;;;;;;8.02;5.07;;;24.20;99.90;;;;;;5044238;28;20180;-68
2022/08/19 12:54:08;;;;;;;7.40;4.50;;;24.20;99.90;;;;;;5038870;28;20040;-69
2022/08/19 12:56:33;;;;;;;17.40;9.23;;;24.20;99.90;;;;;;5037658;28;20041;-69
2022/08/19 12:59:02;;;;;;;11.33;6.30;;;24.20;99.90;;;;;;5038872;28;20107;-69
2022/08/19 13:01:32;;;;;;;10.73;5.50;;;24.20;99.90;;;;;;5031860;28;20112;-69
2022/08/19 13:03:58;;;;;;;6.18;4.40;;;24.10;99.90;;;;;;5031969;28;20041;-68
2022/08/19 13:06:23;;;;;;;11.65;4.82;;;24.10;99.90;;;;;;5031806;28;20057;-69
2022/08/19 13:08:49;;;;;;;9.33;4.70;;;23.90;99.90;;;;;;5038792;28;20166;-68